sensor_id;sensor_type;location;lat;lon;timestamp;P1;durP1;ratioP1;P2;durP2;ratioP2
38783;SDS011;24531;45.502;12.238;2023-03-01T00:01:03;15.32;;;8.10;;
38783;SDS011;24531;45.502;12.238;2023-03-01T00:03:31;14.07;;;8.00;;
38783;SDS011;24531;45.502;12.238;2023-03-01T00:05:57;12.27;;;6.55;;
38783;SDS011;24531;45.502;12.238;2023-03-01T00:08:23;11.23;;;7.07;;
38783;SDS011;24531;45.502;12.238;2023-03-01T00:11:51;10.38;;;6.70;;
38783;SDS011;24531;45.502;12.238;2023-03-01T00:13:48;12.70;;;6.95;;
38783;SDS011;24531;45.502;12.238;2023-03-01T00:16:20;11.57;;;6.85;;
38783;SDS011;24531;45.502;12.238;2023-03-01T00:18:50;12.15;;;6.90;;
38783;SDS011;24531;45.502;12.238;2023-03-01T00:21:16;11.50;;;7.13;;
38783;SDS011;24531;45.502;12.238;2023-03-01T00:23:42;13.60;;;7.05;;
38783;SDS011;24531;45.502;12.238;2023-03-01T00:26:09;12.88;;;7.75;;
38783;SDS011;24531;45.502;12.238;2023-03-01T00:28:37;11.35;;;7.78;;
38783;SDS011;24531;45.502;12.238;2023-03-01T00:31:04;12.25;;;7.75;;
38783;SDS011;24531;45.502;12.238;2023-03-01T00:33:31;11.15;;;7.15;;
38783;SDS011;24531;45.502;12.238;2023-03-01T00:36:00;10.23;;;6.80;;
38783;SDS011;24531;45.502;12.238;2023-03-01T00:38:26;13.38;;;7.95;;
38783;SDS011;24531;45.502;12.238;2023-03-01T00:40:52;11.48;;;7.10;;
38783;SDS011;24531;45.502;12.238;2023-03-01T00:43:18;10.82;;;7.07;;
38783;SDS011;24531;45.502;12.238;2023-03-01T00:45:44;12.68;;;7.30;;
38783;SDS011;24531;45.502;12.238;2023-03-01T00:48:10;11.18;;;7.53;;
38783;SDS011;24531;45.502;12.238;2023-03-01T00:50:35;12.23;;;7.53;;
38783;SDS011;24531;45.502;12.238;2023-03-01T00:53:01;11.52;;;7.68;;
38783;SDS011;24531;45.502;12.238;2023-03-01T00:55:27;13.98;;;8.13;;
38783;SDS011;24531;45.502;12.238;2023-03-01T00:57:52;13.27;;;7.45;;
38783;SDS011;24531;45.502;12.238;2023-03-01T01:00:19;11.80;;;7.10;;
38783;SDS011;24531;45.502;12.238;2023-03-01T01:02:45;14.77;;;8.65;;
38783;SDS011;24531;45.502;12.238;2023-03-01T01:05:11;12.02;;;7.50;;
38783;SDS011;24531;45.502;12.238;2023-03-01T01:07:36;16.00;;;8.43;;
38783;SDS011;24531;45.502;12.238;2023-03-01T01:10:02;14.70;;;6.90;;
38783;SDS011;24531;45.502;12.238;2023-03-01T01:12:28;14.63;;;8.60;;
38783;SDS011;24531;45.502;12.238;2023-03-01T01:14:54;14.43;;;7.65;;
38783;SDS011;24531;45.502;12.238;2023-03-01T01:17:20;15.15;;;7.97;;
38783;SDS011;24531;45.502;12.238;2023-03-01T01:19:45;12.27;;;7.65;;
38783;SDS011;24531;45.502;12.238;2023-03-01T01:22:11;13.13;;;7.97;;
38783;SDS011;24531;45.502;12.238;2023-03-01T01:24:37;13.05;;;7.20;;
38783;SDS011;24531;45.502;12.238;2023-03-01T01:27:02;14.20;;;8.02;;
38783;SDS011;24531;45.502;12.238;2023-03-01T01:29:28;12.57;;;7.20;;
38783;SDS011;24531;45.502;12.238;2023-03-01T01:31:53;12.82;;;7.50;;
38783;SDS011;24531;45.502;12.238;2023-03-01T01:34:20;13.95;;;7.22;;
38783;SDS011;24531;45.502;12.238;2023-03-01T01:36:50;12.13;;;7.35;;
38783;SDS011;24531;45.502;12.238;2023-03-01T01:39:19;11.77;;;6.95;;
38783;SDS011;24531;45.502;12.238;2023-03-01T01:41:45;12.38;;;7.35;;
38783;SDS011;24531;45.502;12.238;2023-03-01T01:44:21;11.80;;;7.43;;
38783;SDS011;24531;45.502;12.238;2023-03-01T01:49:31;11.00;;;6.85;;
38783;SDS011;24531;45.502;12.238;2023-03-01T01:54:51;14.38;;;6.80;;
38783;SDS011;24531;45.502;12.238;2023-03-01T01:57:32;15.02;;;7.65;;
38783;SDS011;24531;45.502;12.238;2023-03-01T02:00:06;11.23;;;7.18;;
38783;SDS011;24531;45.502;12.238;2023-03-01T02:02:38;12.77;;;8.50;;
38783;SDS011;24531;45.502;12.238;2023-03-01T02:05:08;11.68;;;7.05;;
38783;SDS011;24531;45.502;12.238;2023-03-01T02:07:53;9.55;;;6.03;;
38783;SDS011;24531;45.502;12.238;2023-03-01T02:10:20;13.13;;;7.63;;
38783;SDS011;24531;45.502;12.238;2023-03-01T02:12:47;11.70;;;6.75;;
38783;SDS011;24531;45.502;12.238;2023-03-01T02:15:13;9.25;;;6.13;;
38783;SDS011;24531;45.502;12.238;2023-03-01T02:17:38;13.18;;;7.57;;
38783;SDS011;24531;45.502;12.238;2023-03-01T02:20:12;9.77;;;6.90;;
38783;SDS011;24531;45.502;12.238;2023-03-01T02:22:46;11.10;;;6.00;;
38783;SDS011;24531;45.502;12.238;2023-03-01T02:30:22;10.63;;;6.28;;
38783;SDS011;24531;45.502;12.238;2023-03-01T02:32:49;9.98;;;6.28;;
38783;SDS011;24531;45.502;12.238;2023-03-01T02:35:16;12.63;;;6.82;;
38783;SDS011;24531;45.502;12.238;2023-03-01T02:37:44;12.73;;;7.53;;
38783;SDS011;24531;45.502;12.238;2023-03-01T02:40:12;12.07;;;7.13;;
38783;SDS011;24531;45.502;12.238;2023-03-01T02:43:01;16.02;;;8.45;;
38783;SDS011;24531;45.502;12.238;2023-03-01T02:45:34;12.57;;;7.13;;
38783;SDS011;24531;45.502;12.238;2023-03-01T02:47:59;11.75;;;7.57;;
38783;SDS011;24531;45.502;12.238;2023-03-01T02:55:32;12.18;;;6.65;;
38783;SDS011;24531;45.502;12.238;2023-03-01T02:57:58;9.82;;;6.30;;
38783;SDS011;24531;45.502;12.238;2023-03-01T03:00:28;12.35;;;6.88;;
38783;SDS011;24531;45.502;12.238;2023-03-01T03:03:05;12.25;;;7.28;;
38783;SDS011;24531;45.502;12.238;2023-03-01T03:05:32;9.70;;;6.20;;
38783;SDS011;24531;45.502;12.238;2023-03-01T03:07:59;10.07;;;6.50;;
38783;SDS011;24531;45.502;12.238;2023-03-01T03:10:30;10.40;;;6.07;;
38783;SDS011;24531;45.502;12.238;2023-03-01T03:12:59;9.73;;;6.27;;
38783;SDS011;24531;45.502;12.238;2023-03-01T03:15:32;9.68;;;5.72;;
38783;SDS011;24531;45.502;12.238;2023-03-01T03:18:01;11.52;;;6.20;;
38783;SDS011;24531;45.502;12.238;2023-03-01T03:20:28;12.00;;;6.53;;
38783;SDS011;24531;45.502;12.238;2023-03-01T03:22:57;15.15;;;7.07;;
38783;SDS011;24531;45.502;12.238;2023-03-01T03:25:24;9.65;;;6.93;;
38783;SDS011;24531;45.502;12.238;2023-03-01T03:27:51;10.13;;;7.07;;
38783;SDS011;24531;45.502;12.238;2023-03-01T03:30:25;10.02;;;6.57;;
38783;SDS011;24531;45.502;12.238;2023-03-01T03:32:57;10.57;;;6.78;;
38783;SDS011;24531;45.502;12.238;2023-03-01T03:37:55;14.95;;;7.00;;
38783;SDS011;24531;45.502;12.238;2023-03-01T03:42:58;11.30;;;6.15;;
38783;SDS011;24531;45.502;12.238;2023-03-01T03:45:26;10.85;;;6.40;;
38783;SDS011;24531;45.502;12.238;2023-03-01T03:47:52;10.70;;;6.35;;
38783;SDS011;24531;45.502;12.238;2023-03-01T03:50:18;12.20;;;7.00;;
38783;SDS011;24531;45.502;12.238;2023-03-01T03:52:44;11.77;;;7.18;;
38783;SDS011;24531;45.502;12.238;2023-03-01T03:55:10;11.45;;;6.18;;
38783;SDS011;24531;45.502;12.238;2023-03-01T03:57:37;11.05;;;6.57;;
38783;SDS011;24531;45.502;12.238;2023-03-01T04:00:04;14.85;;;7.05;;
38783;SDS011;24531;45.502;12.238;2023-03-01T04:02:37;12.73;;;6.95;;
38783;SDS011;24531;45.502;12.238;2023-03-01T04:05:07;12.30;;;6.70;;
38783;SDS011;24531;45.502;12.238;2023-03-01T04:07:34;10.88;;;7.05;;
38783;SDS011;24531;45.502;12.238;2023-03-01T04:10:02;11.05;;;6.53;;
38783;SDS011;24531;45.502;12.238;2023-03-01T04:12:28;10.80;;;7.00;;
38783;SDS011;24531;45.502;12.238;2023-03-01T04:14:54;11.30;;;7.60;;
38783;SDS011;24531;45.502;12.238;2023-03-01T04:17:23;11.27;;;6.95;;
38783;SDS011;24531;45.502;12.238;2023-03-01T04:19:48;8.98;;;6.03;;
38783;SDS011;24531;45.502;12.238;2023-03-01T04:22:14;8.80;;;6.18;;
38783;SDS011;24531;45.502;12.238;2023-03-01T04:24:43;10.05;;;6.05;;
38783;SDS011;24531;45.502;12.238;2023-03-01T04:27:09;10.70;;;6.53;;
38783;SDS011;24531;45.502;12.238;2023-03-01T04:29:35;11.43;;;6.30;;
38783;SDS011;24531;45.502;12.238;2023-03-01T04:32:01;8.98;;;5.82;;
38783;SDS011;24531;45.502;12.238;2023-03-01T04:34:27;10.70;;;6.15;;
38783;SDS011;24531;45.502;12.238;2023-03-01T04:36:54;13.43;;;6.65;;
38783;SDS011;24531;45.502;12.238;2023-03-01T04:39:20;9.75;;;6.88;;
38783;SDS011;24531;45.502;12.238;2023-03-01T04:41:46;13.20;;;7.65;;
38783;SDS011;24531;45.502;12.238;2023-03-01T04:44:11;12.13;;;7.40;;
38783;SDS011;24531;45.502;12.238;2023-03-01T04:46:37;14.30;;;7.68;;
38783;SDS011;24531;45.502;12.238;2023-03-01T04:49:04;14.65;;;7.70;;
38783;SDS011;24531;45.502;12.238;2023-03-01T04:51:30;12.32;;;6.93;;
38783;SDS011;24531;45.502;12.238;2023-03-01T04:53:57;13.57;;;7.57;;
38783;SDS011;24531;45.502;12.238;2023-03-01T04:56:44;14.70;;;6.80;;
38783;SDS011;24531;45.502;12.238;2023-03-01T04:59:11;10.10;;;6.45;;
38783;SDS011;24531;45.502;12.238;2023-03-01T05:01:37;9.43;;;5.80;;
38783;SDS011;24531;45.502;12.238;2023-03-01T05:04:03;11.40;;;7.10;;
38783;SDS011;24531;45.502;12.238;2023-03-01T05:06:30;10.77;;;6.47;;
38783;SDS011;24531;45.502;12.238;2023-03-01T05:08:56;13.25;;;7.55;;
38783;SDS011;24531;45.502;12.238;2023-03-01T05:11:22;15.07;;;8.05;;
38783;SDS011;24531;45.502;12.238;2023-03-01T05:13:47;12.10;;;6.35;;
38783;SDS011;24531;45.502;12.238;2023-03-01T05:16:14;11.43;;;6.90;;
38783;SDS011;24531;45.502;12.238;2023-03-01T05:18:41;10.98;;;6.78;;
38783;SDS011;24531;45.502;12.238;2023-03-01T05:21:11;11.90;;;6.72;;
38783;SDS011;24531;45.502;12.238;2023-03-01T05:23:40;8.60;;;5.88;;
38783;SDS011;24531;45.502;12.238;2023-03-01T05:26:06;9.75;;;6.00;;
38783;SDS011;24531;45.502;12.238;2023-03-01T05:28:32;11.02;;;6.57;;
38783;SDS011;24531;45.502;12.238;2023-03-01T05:30:58;11.00;;;6.68;;
38783;SDS011;24531;45.502;12.238;2023-03-01T05:33:24;10.52;;;6.53;;
38783;SDS011;24531;45.502;12.238;2023-03-01T05:35:50;9.35;;;6.80;;
38783;SDS011;24531;45.502;12.238;2023-03-01T05:38:17;10.68;;;6.70;;
38783;SDS011;24531;45.502;12.238;2023-03-01T05:40:44;11.95;;;7.20;;
38783;SDS011;24531;45.502;12.238;2023-03-01T05:43:13;10.80;;;6.20;;
38783;SDS011;24531;45.502;12.238;2023-03-01T05:45:40;10.50;;;6.30;;
38783;SDS011;24531;45.502;12.238;2023-03-01T05:48:06;12.27;;;6.28;;
38783;SDS011;24531;45.502;12.238;2023-03-01T05:50:35;10.55;;;6.05;;
38783;SDS011;24531;45.502;12.238;2023-03-01T05:53:06;8.98;;;6.18;;
38783;SDS011;24531;45.502;12.238;2023-03-01T05:55:35;11.23;;;6.20;;
38783;SDS011;24531;45.502;12.238;2023-03-01T05:58:02;9.68;;;5.57;;
38783;SDS011;24531;45.502;12.238;2023-03-01T06:00:30;10.55;;;5.95;;
38783;SDS011;24531;45.502;12.238;2023-03-01T06:02:57;10.25;;;5.85;;
38783;SDS011;24531;45.502;12.238;2023-03-01T06:05:24;8.45;;;5.90;;
38783;SDS011;24531;45.502;12.238;2023-03-01T06:07:50;10.43;;;5.50;;
38783;SDS011;24531;45.502;12.238;2023-03-01T06:10:16;8.32;;;5.50;;
38783;SDS011;24531;45.502;12.238;2023-03-01T06:12:43;8.98;;;5.45;;
38783;SDS011;24531;45.502;12.238;2023-03-01T06:15:10;9.48;;;6.47;;
38783;SDS011;24531;45.502;12.238;2023-03-01T06:17:40;8.77;;;5.05;;
38783;SDS011;24531;45.502;12.238;2023-03-01T06:20:09;9.75;;;5.78;;
38783;SDS011;24531;45.502;12.238;2023-03-01T06:22:36;14.40;;;5.68;;
38783;SDS011;24531;45.502;12.238;2023-03-01T06:25:03;12.43;;;6.10;;
38783;SDS011;24531;45.502;12.238;2023-03-01T06:27:29;10.00;;;6.03;;
38783;SDS011;24531;45.502;12.238;2023-03-01T06:29:55;10.48;;;5.50;;
38783;SDS011;24531;45.502;12.238;2023-03-01T06:32:20;9.88;;;5.88;;
38783;SDS011;24531;45.502;12.238;2023-03-01T06:34:46;10.27;;;6.50;;
38783;SDS011;24531;45.502;12.238;2023-03-01T06:37:12;10.90;;;6.10;;
38783;SDS011;24531;45.502;12.238;2023-03-01T07:01:40;7.32;;;5.15;;
38783;SDS011;24531;45.502;12.238;2023-03-01T07:04:12;10.00;;;6.45;;
38783;SDS011;24531;45.502;12.238;2023-03-01T07:06:38;9.77;;;6.22;;
38783;SDS011;24531;45.502;12.238;2023-03-01T07:13:18;9.10;;;6.15;;
38783;SDS011;24531;45.502;12.238;2023-03-01T07:15:53;11.30;;;5.85;;
38783;SDS011;24531;45.502;12.238;2023-03-01T07:47:15;12.45;;;5.05;;
38783;SDS011;24531;45.502;12.238;2023-03-01T07:49:44;11.55;;;5.85;;
38783;SDS011;24531;45.502;12.238;2023-03-01T07:52:15;13.13;;;6.28;;
38783;SDS011;24531;45.502;12.238;2023-03-01T07:55:08;9.43;;;5.53;;
38783;SDS011;24531;45.502;12.238;2023-03-01T07:57:34;11.82;;;5.50;;
38783;SDS011;24531;45.502;12.238;2023-03-01T07:59:59;8.35;;;5.30;;
38783;SDS011;24531;45.502;12.238;2023-03-01T08:02:25;9.07;;;5.72;;
38783;SDS011;24531;45.502;12.238;2023-03-01T08:04:51;10.65;;;5.75;;
38783;SDS011;24531;45.502;12.238;2023-03-01T08:07:16;8.15;;;5.32;;
38783;SDS011;24531;45.502;12.238;2023-03-01T08:09:42;11.30;;;5.00;;
38783;SDS011;24531;45.502;12.238;2023-03-01T08:12:07;14.13;;;5.10;;
38783;SDS011;24531;45.502;12.238;2023-03-01T08:14:33;8.38;;;5.60;;
38783;SDS011;24531;45.502;12.238;2023-03-01T08:16:58;11.13;;;6.07;;
38783;SDS011;24531;45.502;12.238;2023-03-01T08:19:24;8.60;;;5.97;;
38783;SDS011;24531;45.502;12.238;2023-03-01T08:21:50;9.80;;;6.30;;
38783;SDS011;24531;45.502;12.238;2023-03-01T08:24:16;10.48;;;5.45;;
38783;SDS011;24531;45.502;12.238;2023-03-01T08:26:41;16.17;;;6.13;;
38783;SDS011;24531;45.502;12.238;2023-03-01T08:29:07;13.93;;;6.15;;
38783;SDS011;24531;45.502;12.238;2023-03-01T08:31:33;9.73;;;5.47;;
38783;SDS011;24531;45.502;12.238;2023-03-01T08:34:03;8.40;;;5.07;;
38783;SDS011;24531;45.502;12.238;2023-03-01T08:36:31;15.82;;;6.07;;
38783;SDS011;24531;45.502;12.238;2023-03-01T08:38:59;10.70;;;5.47;;
38783;SDS011;24531;45.502;12.238;2023-03-01T08:41:26;9.07;;;4.90;;
38783;SDS011;24531;45.502;12.238;2023-03-01T08:43:52;7.53;;;4.68;;
38783;SDS011;24531;45.502;12.238;2023-03-01T08:46:23;10.43;;;6.00;;
38783;SDS011;24531;45.502;12.238;2023-03-01T08:48:52;10.93;;;5.47;;
38783;SDS011;24531;45.502;12.238;2023-03-01T08:51:20;8.35;;;4.95;;
38783;SDS011;24531;45.502;12.238;2023-03-01T08:53:47;9.85;;;5.00;;
38783;SDS011;24531;45.502;12.238;2023-03-01T08:56:13;8.55;;;4.72;;
38783;SDS011;24531;45.502;12.238;2023-03-01T08:58:40;8.95;;;4.97;;
38783;SDS011;24531;45.502;12.238;2023-03-01T09:01:09;9.20;;;4.47;;
38783;SDS011;24531;45.502;12.238;2023-03-01T09:03:35;8.90;;;5.63;;
38783;SDS011;24531;45.502;12.238;2023-03-01T09:06:02;8.15;;;4.88;;
38783;SDS011;24531;45.502;12.238;2023-03-01T09:08:29;8.50;;;4.07;;
38783;SDS011;24531;45.502;12.238;2023-03-01T09:10:55;9.60;;;4.88;;
38783;SDS011;24531;45.502;12.238;2023-03-01T09:13:21;6.57;;;4.65;;
38783;SDS011;24531;45.502;12.238;2023-03-01T09:15:50;7.43;;;4.47;;
38783;SDS011;24531;45.502;12.238;2023-03-01T09:18:16;12.40;;;5.28;;
38783;SDS011;24531;45.502;12.238;2023-03-01T09:20:42;10.55;;;4.60;;
38783;SDS011;24531;45.502;12.238;2023-03-01T09:23:07;10.27;;;5.22;;
38783;SDS011;24531;45.502;12.238;2023-03-01T09:25:44;14.85;;;5.50;;
38783;SDS011;24531;45.502;12.238;2023-03-01T09:31:15;12.00;;;4.75;;
38783;SDS011;24531;45.502;12.238;2023-03-01T09:34:33;9.25;;;4.80;;
38783;SDS011;24531;45.502;12.238;2023-03-01T09:37:21;8.85;;;5.13;;
38783;SDS011;24531;45.502;12.238;2023-03-01T09:39:50;9.57;;;5.50;;
38783;SDS011;24531;45.502;12.238;2023-03-01T09:42:15;8.75;;;5.20;;
38783;SDS011;24531;45.502;12.238;2023-03-01T09:44:54;12.57;;;5.45;;
38783;SDS011;24531;45.502;12.238;2023-03-01T09:47:33;10.90;;;5.75;;
38783;SDS011;24531;45.502;12.238;2023-03-01T09:50:11;9.15;;;5.53;;
38783;SDS011;24531;45.502;12.238;2023-03-01T09:55:44;12.88;;;5.53;;
38783;SDS011;24531;45.502;12.238;2023-03-01T09:58:37;11.48;;;5.90;;
38783;SDS011;24531;45.502;12.238;2023-03-01T10:01:27;9.48;;;5.20;;
38783;SDS011;24531;45.502;12.238;2023-03-01T10:06:31;14.07;;;6.47;;
38783;SDS011;24531;45.502;12.238;2023-03-01T10:08:58;9.95;;;5.32;;
38783;SDS011;24531;45.502;12.238;2023-03-01T10:11:35;14.50;;;5.82;;
38783;SDS011;24531;45.502;12.238;2023-03-01T10:16:51;6.97;;;5.20;;
38783;SDS011;24531;45.502;12.238;2023-03-01T10:19:33;10.90;;;5.15;;
38783;SDS011;24531;45.502;12.238;2023-03-01T10:22:04;24.15;;;5.97;;
38783;SDS011;24531;45.502;12.238;2023-03-01T10:24:36;8.25;;;5.55;;
38783;SDS011;24531;45.502;12.238;2023-03-01T10:27:11;6.88;;;4.05;;
38783;SDS011;24531;45.502;12.238;2023-03-01T10:32:23;14.00;;;4.90;;
38783;SDS011;24531;45.502;12.238;2023-03-01T10:34:50;15.20;;;5.35;;
38783;SDS011;24531;45.502;12.238;2023-03-01T10:40:03;13.52;;;4.70;;
38783;SDS011;24531;45.502;12.238;2023-03-01T10:42:35;13.18;;;4.45;;
38783;SDS011;24531;45.502;12.238;2023-03-01T10:48:02;14.10;;;4.03;;
38783;SDS011;24531;45.502;12.238;2023-03-01T10:50:44;13.68;;;4.57;;
38783;SDS011;24531;45.502;12.238;2023-03-01T10:53:20;11.23;;;4.95;;
38783;SDS011;24531;45.502;12.238;2023-03-01T10:55:56;7.85;;;4.20;;
38783;SDS011;24531;45.502;12.238;2023-03-01T10:58:27;10.35;;;4.05;;
38783;SDS011;24531;45.502;12.238;2023-03-01T11:03:25;14.23;;;4.43;;
38783;SDS011;24531;45.502;12.238;2023-03-01T11:06:01;8.20;;;4.00;;
38783;SDS011;24531;45.502;12.238;2023-03-01T11:08:30;9.55;;;5.00;;
38783;SDS011;24531;45.502;12.238;2023-03-01T11:13:45;10.15;;;4.75;;
38783;SDS011;24531;45.502;12.238;2023-03-01T11:16:22;10.73;;;4.68;;
38783;SDS011;24531;45.502;12.238;2023-03-01T11:18:57;10.05;;;4.13;;
38783;SDS011;24531;45.502;12.238;2023-03-01T11:24:43;10.43;;;4.68;;
38783;SDS011;24531;45.502;12.238;2023-03-01T11:27:33;9.45;;;5.30;;
38783;SDS011;24531;45.502;12.238;2023-03-01T11:35:36;8.75;;;5.30;;
38783;SDS011;24531;45.502;12.238;2023-03-01T11:38:18;12.57;;;5.57;;
38783;SDS011;24531;45.502;12.238;2023-03-01T11:40:52;11.77;;;5.17;;
38783;SDS011;24531;45.502;12.238;2023-03-01T11:43:52;10.50;;;5.97;;
38783;SDS011;24531;45.502;12.238;2023-03-01T12:03:07;13.27;;;5.25;;
38783;SDS011;24531;45.502;12.238;2023-03-01T12:08:38;15.88;;;5.50;;
38783;SDS011;24531;45.502;12.238;2023-03-01T12:27:17;13.63;;;4.75;;
38783;SDS011;24531;45.502;12.238;2023-03-01T12:38:42;9.93;;;4.85;;
38783;SDS011;24531;45.502;12.238;2023-03-01T12:49:28;9.02;;;4.88;;
38783;SDS011;24531;45.502;12.238;2023-03-01T12:52:09;9.98;;;5.13;;
38783;SDS011;24531;45.502;12.238;2023-03-01T12:54:39;8.50;;;5.78;;
38783;SDS011;24531;45.502;12.238;2023-03-01T13:02:43;10.35;;;6.15;;
38783;SDS011;24531;45.502;12.238;2023-03-01T13:08:45;13.95;;;5.78;;
38783;SDS011;24531;45.502;12.238;2023-03-01T13:11:21;7.18;;;5.00;;
38783;SDS011;24531;45.502;12.238;2023-03-01T13:13:48;14.57;;;6.28;;
38783;SDS011;24531;45.502;12.238;2023-03-01T13:19:13;13.02;;;5.40;;
38783;SDS011;24531;45.502;12.238;2023-03-01T13:21:39;7.55;;;5.30;;
38783;SDS011;24531;45.502;12.238;2023-03-01T13:24:23;9.10;;;5.55;;
38783;SDS011;24531;45.502;12.238;2023-03-01T13:29:45;10.73;;;5.95;;
38783;SDS011;24531;45.502;12.238;2023-03-01T13:32:25;9.43;;;4.97;;
38783;SDS011;24531;45.502;12.238;2023-03-01T13:37:41;18.92;;;5.68;;
38783;SDS011;24531;45.502;12.238;2023-03-01T13:42:50;6.95;;;4.80;;
38783;SDS011;24531;45.502;12.238;2023-03-01T13:45:34;9.60;;;5.13;;
38783;SDS011;24531;45.502;12.238;2023-03-01T13:48:09;10.07;;;4.90;;
38783;SDS011;24531;45.502;12.238;2023-03-01T13:50:54;9.52;;;4.75;;
38783;SDS011;24531;45.502;12.238;2023-03-01T13:53:31;7.15;;;4.57;;
38783;SDS011;24531;45.502;12.238;2023-03-01T13:56:01;9.05;;;4.60;;
38783;SDS011;24531;45.502;12.238;2023-03-01T13:59:12;7.75;;;4.30;;
38783;SDS011;24531;45.502;12.238;2023-03-01T14:01:32;8.25;;;4.70;;
38783;SDS011;24531;45.502;12.238;2023-03-01T14:04:00;6.65;;;4.07;;
38783;SDS011;24531;45.502;12.238;2023-03-01T14:06:27;9.02;;;4.90;;
38783;SDS011;24531;45.502;12.238;2023-03-01T14:12:04;8.45;;;4.57;;
38783;SDS011;24531;45.502;12.238;2023-03-01T14:17:13;6.60;;;4.22;;
38783;SDS011;24531;45.502;12.238;2023-03-01T14:19:47;7.80;;;4.40;;
38783;SDS011;24531;45.502;12.238;2023-03-01T14:22:37;7.28;;;4.70;;
38783;SDS011;24531;45.502;12.238;2023-03-01T14:25:29;6.63;;;3.70;;
38783;SDS011;24531;45.502;12.238;2023-03-01T14:27:58;9.10;;;4.32;;
38783;SDS011;24531;45.502;12.238;2023-03-01T14:30:30;10.13;;;4.35;;
38783;SDS011;24531;45.502;12.238;2023-03-01T14:33:05;13.77;;;4.22;;
38783;SDS011;24531;45.502;12.238;2023-03-01T14:35:42;6.85;;;3.55;;
38783;SDS011;24531;45.502;12.238;2023-03-01T14:38:20;9.98;;;4.82;;
38783;SDS011;24531;45.502;12.238;2023-03-01T14:43:45;8.98;;;4.25;;
38783;SDS011;24531;45.502;12.238;2023-03-01T14:49:16;9.10;;;3.83;;
38783;SDS011;24531;45.502;12.238;2023-03-01T14:51:54;5.10;;;3.47;;
38783;SDS011;24531;45.502;12.238;2023-03-01T14:57:16;4.88;;;3.25;;
38783;SDS011;24531;45.502;12.238;2023-03-01T14:59:44;4.82;;;3.40;;
38783;SDS011;24531;45.502;12.238;2023-03-01T15:02:13;6.25;;;3.13;;
38783;SDS011;24531;45.502;12.238;2023-03-01T15:04:43;7.40;;;3.60;;
38783;SDS011;24531;45.502;12.238;2023-03-01T15:07:12;8.90;;;2.88;;
38783;SDS011;24531;45.502;12.238;2023-03-01T15:09:39;4.32;;;2.85;;
38783;SDS011;24531;45.502;12.238;2023-03-01T15:14:53;5.78;;;3.03;;
38783;SDS011;24531;45.502;12.238;2023-03-01T15:17:35;6.13;;;3.13;;
38783;SDS011;24531;45.502;12.238;2023-03-01T15:20:05;6.93;;;3.90;;
38783;SDS011;24531;45.502;12.238;2023-03-01T15:22:32;13.43;;;3.60;;
38783;SDS011;24531;45.502;12.238;2023-03-01T15:24:58;6.82;;;3.55;;
38783;SDS011;24531;45.502;12.238;2023-03-01T15:27:26;7.30;;;3.60;;
38783;SDS011;24531;45.502;12.238;2023-03-01T15:29:55;8.73;;;3.60;;
38783;SDS011;24531;45.502;12.238;2023-03-01T15:32:28;8.18;;;3.83;;
38783;SDS011;24531;45.502;12.238;2023-03-01T15:34:57;5.10;;;3.10;;
38783;SDS011;24531;45.502;12.238;2023-03-01T15:40:25;4.80;;;2.65;;
38783;SDS011;24531;45.502;12.238;2023-03-01T15:43:02;6.32;;;3.60;;
38783;SDS011;24531;45.502;12.238;2023-03-01T15:45:30;5.07;;;3.50;;
38783;SDS011;24531;45.502;12.238;2023-03-01T15:48:05;7.75;;;4.10;;
38783;SDS011;24531;45.502;12.238;2023-03-01T15:50:53;9.57;;;2.83;;
38783;SDS011;24531;45.502;12.238;2023-03-01T15:53:20;9.02;;;2.78;;
38783;SDS011;24531;45.502;12.238;2023-03-01T15:55:46;7.65;;;2.95;;
38783;SDS011;24531;45.502;12.238;2023-03-01T15:58:18;6.95;;;2.50;;
38783;SDS011;24531;45.502;12.238;2023-03-01T16:00:46;9.33;;;3.23;;
38783;SDS011;24531;45.502;12.238;2023-03-01T16:03:13;12.07;;;3.42;;
38783;SDS011;24531;45.502;12.238;2023-03-01T16:05:46;11.73;;;3.63;;
38783;SDS011;24531;45.502;12.238;2023-03-01T16:08:16;6.88;;;3.03;;
38783;SDS011;24531;45.502;12.238;2023-03-01T16:13:13;6.57;;;2.92;;
38783;SDS011;24531;45.502;12.238;2023-03-01T16:15:38;5.88;;;2.80;;
38783;SDS011;24531;45.502;12.238;2023-03-01T16:18:25;3.45;;;1.98;;
38783;SDS011;24531;45.502;12.238;2023-03-01T16:20:50;10.10;;;3.47;;
38783;SDS011;24531;45.502;12.238;2023-03-01T16:23:17;6.13;;;3.13;;
38783;SDS011;24531;45.502;12.238;2023-03-01T16:25:43;5.05;;;2.70;;
38783;SDS011;24531;45.502;12.238;2023-03-01T16:28:09;6.05;;;2.63;;
38783;SDS011;24531;45.502;12.238;2023-03-01T16:30:35;7.28;;;3.05;;
38783;SDS011;24531;45.502;12.238;2023-03-01T16:33:01;6.85;;;3.03;;
38783;SDS011;24531;45.502;12.238;2023-03-01T16:35:27;6.60;;;3.03;;
38783;SDS011;24531;45.502;12.238;2023-03-01T16:37:54;6.78;;;2.83;;
38783;SDS011;24531;45.502;12.238;2023-03-01T16:40:20;7.65;;;2.88;;
38783;SDS011;24531;45.502;12.238;2023-03-01T16:42:49;7.40;;;3.85;;
38783;SDS011;24531;45.502;12.238;2023-03-01T16:45:15;7.70;;;3.53;;
38783;SDS011;24531;45.502;12.238;2023-03-01T16:47:49;5.90;;;3.28;;
38783;SDS011;24531;45.502;12.238;2023-03-01T16:50:15;8.35;;;3.38;;
38783;SDS011;24531;45.502;12.238;2023-03-01T16:52:40;5.78;;;2.72;;
38783;SDS011;24531;45.502;12.238;2023-03-01T16:55:06;4.40;;;2.45;;
38783;SDS011;24531;45.502;12.238;2023-03-01T16:57:34;3.63;;;2.47;;
38783;SDS011;24531;45.502;12.238;2023-03-01T17:00:00;3.28;;;2.28;;
38783;SDS011;24531;45.502;12.238;2023-03-01T17:02:29;3.90;;;2.53;;
38783;SDS011;24531;45.502;12.238;2023-03-01T17:04:55;5.82;;;2.80;;
38783;SDS011;24531;45.502;12.238;2023-03-01T17:07:21;7.57;;;2.95;;
38783;SDS011;24531;45.502;12.238;2023-03-01T17:09:47;6.65;;;2.97;;
38783;SDS011;24531;45.502;12.238;2023-03-01T17:12:13;3.60;;;2.42;;
38783;SDS011;24531;45.502;12.238;2023-03-01T17:14:39;4.78;;;2.58;;
38783;SDS011;24531;45.502;12.238;2023-03-01T17:17:06;3.50;;;2.42;;
38783;SDS011;24531;45.502;12.238;2023-03-01T17:19:32;4.28;;;2.40;;
38783;SDS011;24531;45.502;12.238;2023-03-01T17:22:00;5.47;;;3.00;;
38783;SDS011;24531;45.502;12.238;2023-03-01T17:24:27;5.18;;;2.55;;
38783;SDS011;24531;45.502;12.238;2023-03-01T17:26:53;3.30;;;2.15;;
38783;SDS011;24531;45.502;12.238;2023-03-01T17:29:19;5.68;;;2.65;;
38783;SDS011;24531;45.502;12.238;2023-03-01T17:31:45;4.95;;;2.22;;
38783;SDS011;24531;45.502;12.238;2023-03-01T17:34:10;3.28;;;2.50;;
38783;SDS011;24531;45.502;12.238;2023-03-01T17:36:36;3.78;;;2.55;;
38783;SDS011;24531;45.502;12.238;2023-03-01T17:39:08;2.50;;;2.22;;
38783;SDS011;24531;45.502;12.238;2023-03-01T17:41:36;3.75;;;1.92;;
38783;SDS011;24531;45.502;12.238;2023-03-01T17:44:02;3.47;;;2.33;;
38783;SDS011;24531;45.502;12.238;2023-03-01T17:46:27;3.22;;;2.28;;
38783;SDS011;24531;45.502;12.238;2023-03-01T17:48:53;3.22;;;2.63;;
38783;SDS011;24531;45.502;12.238;2023-03-01T17:51:19;4.60;;;3.17;;
38783;SDS011;24531;45.502;12.238;2023-03-01T17:53:44;4.30;;;2.78;;
38783;SDS011;24531;45.502;12.238;2023-03-01T17:56:10;4.15;;;2.40;;
38783;SDS011;24531;45.502;12.238;2023-03-01T17:58:36;3.80;;;2.95;;
38783;SDS011;24531;45.502;12.238;2023-03-01T18:01:13;3.22;;;2.22;;
38783;SDS011;24531;45.502;12.238;2023-03-01T18:03:43;4.13;;;2.92;;
38783;SDS011;24531;45.502;12.238;2023-03-01T18:06:10;4.43;;;2.90;;
38783;SDS011;24531;45.502;12.238;2023-03-01T18:08:41;5.30;;;2.65;;